Terminal Aerodrome Forecast
Issued by NWS Charleston, WV

Current Version | Previous Version | Text Only | Print | Product List | Glossary Off
Versions: 1 2 3 4 5 6 7 8 9 10 11 12 13 14 15 16 17 18 19 20 21 22 23

000
FTUS41 KRLX 301100
TAFBKW
TAF
KBKW 301125Z 3012/3112 VRB03KT P6SM BKN100
     FM301900 20008KT P6SM BKN040
     FM311100 22004KT 6SM -SHRA BR OVC050=

USA.gov is the U.S. government's official web portal to all federal, state and local government web resources and services.